Main page
METAR-TAF:

Airports :

Frankfurt, Germany

Frankfurt Airport

latitude: 50-03N, longitude: 008-36E, elevation: 111 m

Current weather observation

The report was made 21 minutes ago, at 11:20 UTC
Wind 9 kt from the West/Northwest, varying between South/Southwest and Northwest
Temperature 12°C
Humidity 82%
Pressure 1015 hPa
Visibility 10 km or more
Few clouds at a height of 1000 ft
Overcast at a height of 3300 ft
rain

METAR: EDDF 241120Z 29009KT 210V320 9999 RA FEW010 OVC033 12/09 Q1015 TEMPO NSW

Time: 13:41 (11:41 UTC)

Forecast

The report was made 41 minutes ago, at 11:00 UTC
Forecast valid from 24 at 12 UTC to 25 at 18 UTC
Wind 8 kt from the West/Northwest
Visibility 10 km or more
Broken clouds at a height of 3000 ft
Probability 30% :
Temporary
from 24 at 12 UTC to 24 at 15 UTC
rain
Becoming
from 24 at 19 UTC to 24 at 21 UTC
Wind 3 kt from variable directions

TAF: EDDF 241100Z 2412/2518 30008KT 9999 BKN030 PROB30 TEMPO 2412/2415 RA BECMG 2419/2421 VRB03KT

METAR-TAF

Weather observations and forecasts of more than 4000 airports (METAR and TAF reports).

The available stations are represented by yellow and red dots on the map.

Hover mouse over dot to see the name of the station.

Then click to see weather observations and forecasts.

To change the map : click on the green buttons with a black cross to zoom in, on the green button with a dash to zoom out, or on the green arrows for adjacent maps.


METAR-TAF: